Terminal Aerodrome Forecast
Issued by NWS

Home | Current Version | Previous Version | Text Only | Print | Product List | Glossary On
Versions: 1 2 3 4 5 6 7 8 9 10 11 12 13 14
000
FTUS42 KGSP 270520
TAFHKY
TAF
KHKY 270520Z 2706/2806 00000KT P6SM FEW080
      TEMPO 2710/2713 5SM BR
     FM271400 24006KT P6SM SCT045
     FM271800 22006KT P6SM SCT045 PROB30 2720/2724 4SM -TSRA
      BKN045CB
     FM280200 00000KT P6SM SCT110=

USA.gov is the U.S. government's official web portal to all federal, state and local government web resources and services.